Weather History for Coleman, TX

Change the Weather History Date:

Wednesday, October 3, 2012

  Actual Average (KABI) Record (KABI)
Temperature  
Mean Temperature 68 °F 70 °F  
Max Temperature 82 °F 81 °F 100 °F (1951)
Min Temperature 55 °F 58 °F 39 °F (1975)
Degree Days  
Heating Degree Days 0 1  
Month to date heating degree days 3  
Since 1 July heating degree days 14  
Cooling Degree Days 4 6  
Month to date cooling degree days 19  
Year to date cooling degree days 2290  
Growing Degree Days 18 (Base 50)    
Moisture  
Dew Point 53 °F    
Average Humidity 62    
Maximum Humidity 89    
Minimum Humidity 36    
Precipitation  
Precipitation 0.00 in 0.09 in 4.99 in (1959)
Month to date precipitation 0.26  
Year to date precipitation 19.46  
Sea Level Pressure  
Sea Level Pressure 29.97 in    
Wind  
Wind Speed 7 mph (South)    
Max Wind Speed 20 mph    
Max Gust Speed 23 mph    
Visibility 10 miles    
Events      
T = Trace of Precipitation, MM = Missing Value Source: NWS Daily Summary

Daily Weather History Graph

Daily Weather History Graph

Search for Another Location

Airport:

Trip Planner

Search our weather history database for the weather conditions in past years. The results will help you decide how hot, cold, wet, or windy it might be!

Date:

Astronomy

Oct. 03, 2012 Rise Set
Actual Time 7:33 AM CDT 7:19 PM CDT
Civil Twilight 7:08 AM CDT 7:43 PM CDT
Nautical Twilight 6:40 AM CDT 8:11 PM CDT
Astronomical Twilight 6:12 AM CDT 8:40 PM CDT
Moon 9:27 PM CDT (10/3) 10:43 AM CDT (10/3)
Length of Visible Light 12h 34m
Length of Day
11h 46m
Waning Gibbous, 88% of the Moon is Illuminated
Oct 3
Waning Gibbous
Oct 8
Last Quarter
Oct 15
New
Oct 21
First Quarter
Oct 29
Full

Hourly Weather History & Observations

Time (CDT) Temp. Heat Index Dew Point Humidity Pressure Visibility Wind Dir Wind Speed Gust Speed Precip Events Conditions
12:15 AM 56.5 °F - 53.2 °F 89% 29.99 in 10.0 mi Calm Calm - N/A   Clear
12:35 AM 55.9 °F - 52.9 °F 89% 29.99 in 10.0 mi SW 3.5 mph - N/A   Clear
12:55 AM 55.9 °F - 52.0 °F 87% 29.99 in 10.0 mi SSW 3.5 mph - N/A   Clear
1:15 AM 56.5 °F - 51.3 °F 83% 29.98 in 10.0 mi SSW 3.5 mph - N/A   Clear
1:35 AM 57.0 °F - 49.6 °F 76% 29.98 in 10.0 mi SW 4.6 mph - N/A   Clear
1:55 AM 57.4 °F - 48.9 °F 73% 29.98 in 10.0 mi South 4.6 mph - N/A   Clear
2:15 AM 57.0 °F - 49.3 °F 75% 29.98 in 10.0 mi SSW 5.8 mph - N/A   Clear
2:35 AM 56.8 °F - 49.5 °F 76% 29.98 in 10.0 mi SSW 3.5 mph - N/A   Clear
2:55 AM 56.8 °F - 49.6 °F 77% 29.98 in 10.0 mi SSW 5.8 mph - N/A   Clear
3:15 AM 57.0 °F - 49.5 °F 76% 29.97 in 10.0 mi South 5.8 mph - N/A   Clear
3:35 AM 57.0 °F - 49.8 °F 77% 29.97 in 10.0 mi SSW 4.6 mph - N/A   Clear
3:55 AM 56.5 °F - 50.0 °F 79% 29.96 in 10.0 mi SSW 5.8 mph - N/A   Clear
4:15 AM 56.5 °F - 49.8 °F 78% 29.96 in 10.0 mi SSW 4.6 mph - N/A   Clear
4:35 AM 56.1 °F - 50.0 °F 80% 29.96 in 10.0 mi SW 4.6 mph - N/A   Clear
4:55 AM 56.1 °F - 50.0 °F 80% 29.97 in 10.0 mi SSW 4.6 mph - N/A   Clear
5:15 AM 55.9 °F - 50.0 °F 80% 29.97 in 10.0 mi SSW 5.8 mph - N/A   Clear
5:35 AM 55.6 °F - 49.8 °F 81% 29.97 in 10.0 mi SSW 4.6 mph - N/A   Clear
5:55 AM 55.6 °F - 49.6 °F 80% 29.97 in 10.0 mi SSW 4.6 mph - N/A   Clear
6:15 AM 55.8 °F - 49.6 °F 80% 29.98 in 10.0 mi SSW 4.6 mph - N/A   Clear
6:35 AM 55.9 °F - 50.0 °F 80% 29.98 in 10.0 mi South 6.9 mph - N/A   Clear
6:55 AM 56.3 °F - 50.0 °F 79% 29.98 in 10.0 mi South 4.6 mph - N/A   Clear
7:15 AM 56.3 °F - 50.0 °F 79% 29.99 in 10.0 mi South 5.8 mph - N/A   Clear
7:35 AM 56.1 °F - 50.0 °F 80% 29.99 in 10.0 mi SSW 3.5 mph - N/A   Clear
7:55 AM 55.6 °F - 50.0 °F 81% 29.99 in 10.0 mi South 3.5 mph - N/A   Clear
8:15 AM 55.8 °F - 50.4 °F 82% 29.99 in 10.0 mi South 3.5 mph - N/A   Clear
8:35 AM 57.2 °F - 51.1 °F 80% 30.00 in 10.0 mi South 3.5 mph - N/A   Clear
8:55 AM 59.5 °F - 52.0 °F 76% 30.00 in 10.0 mi South 4.6 mph - N/A   Clear
9:15 AM 61.7 °F - 52.5 °F 72% 30.00 in 10.0 mi South 8.1 mph - N/A   Clear
9:35 AM 63.5 °F - 52.7 °F 68% 30.01 in 10.0 mi South 8.1 mph - N/A   Clear
10:15 AM 66.2 °F - 54.0 °F 65% 30.01 in 10.0 mi South 10.4 mph - N/A   Clear
10:35 AM 67.8 °F - 54.3 °F 62% 30.02 in 10.0 mi South 10.4 mph - N/A   Clear
10:55 AM 70.0 °F - 54.9 °F 59% 30.01 in 10.0 mi South 12.7 mph - N/A   Clear
11:15 AM 72.1 °F - 54.1 °F 53% 30.01 in 10.0 mi South 15.0 mph 19.6 mph N/A   Clear
11:35 AM 73.6 °F - 53.2 °F 49% 30.01 in 10.0 mi South 19.6 mph 23.0 mph N/A   Clear
11:55 AM 74.5 °F - 53.2 °F 47% 30.00 in 10.0 mi South 18.4 mph 23.0 mph N/A   Clear
12:15 PM 75.0 °F - 52.7 °F 46% 29.99 in 10.0 mi South 15.0 mph 20.7 mph N/A   Clear
12:35 PM 75.9 °F - 52.9 °F 45% 29.99 in 10.0 mi South 12.7 mph - N/A   Clear
12:55 PM 76.6 °F - 53.8 °F 45% 29.98 in 10.0 mi South 12.7 mph 20.7 mph N/A   Clear
1:15 PM 77.2 °F - 54.1 °F 45% 29.98 in 10.0 mi SSE 11.5 mph 20.7 mph N/A   Clear
1:35 PM 77.9 °F - 54.0 °F 43% 29.97 in 10.0 mi South 9.2 mph 23.0 mph N/A   Clear
1:55 PM 78.6 °F - 53.4 °F 42% 29.96 in 10.0 mi SSE 15.0 mph - N/A   Clear
2:15 PM 79.2 °F - 53.2 °F 41% 29.96 in 10.0 mi South 15.0 mph 19.6 mph N/A   Clear
2:35 PM 79.7 °F - 54.0 °F 41% 29.95 in 10.0 mi SSE 13.8 mph 19.6 mph N/A   Clear
2:55 PM 80.1 °F 80.0 °F 53.4 °F 40% 29.94 in 10.0 mi SSE 11.5 mph 19.6 mph N/A   Clear
3:15 PM 80.4 °F 80.2 °F 54.3 °F 40% 29.94 in 10.0 mi South 12.7 mph 17.3 mph N/A   Clear
3:35 PM 81.0 °F 80.5 °F 53.6 °F 39% 29.93 in 10.0 mi South 15.0 mph 23.0 mph N/A   Clear
3:55 PM 81.7 °F 80.9 °F 53.2 °F 37% 29.93 in 10.0 mi South 11.5 mph 21.9 mph N/A   Clear
4:15 PM 82.0 °F 81.2 °F 53.1 °F 37% 29.93 in 10.0 mi South 16.1 mph 19.6 mph N/A   Clear
4:35 PM 82.2 °F - 52.7 °F 36% 29.93 in 10.0 mi South 13.8 mph 19.6 mph N/A   Clear
4:55 PM 82.4 °F 81.4 °F 53.4 °F 37% 29.93 in 10.0 mi SSE 13.8 mph 19.6 mph N/A   Clear
5:15 PM 82.2 °F 81.3 °F 53.4 °F 37% 29.93 in 10.0 mi SSE 15.0 mph 20.7 mph N/A   Clear
5:35 PM 82.0 °F - 52.9 °F 36% 29.93 in 10.0 mi South 11.5 mph - N/A   Clear
5:55 PM 81.7 °F 81.0 °F 53.4 °F 38% 29.93 in 10.0 mi South 11.5 mph - N/A   Clear
6:15 PM 81.1 °F 80.6 °F 53.4 °F 38% 29.93 in 10.0 mi SSE 12.7 mph 16.1 mph N/A   Clear
6:35 PM 80.1 °F 80.1 °F 54.3 °F 41% 29.93 in 10.0 mi SSE 10.4 mph - N/A   Clear
6:55 PM 78.6 °F - 55.4 °F 45% 29.94 in 10.0 mi SSE 8.1 mph - N/A   Clear
7:15 PM 76.5 °F - 56.8 °F 51% 29.94 in 10.0 mi SSE 8.1 mph - N/A   Clear
7:35 PM 73.9 °F - 57.4 °F 56% 29.94 in 10.0 mi SSE 8.1 mph - N/A   Clear
7:55 PM 73.0 °F - 57.4 °F 58% 29.94 in 10.0 mi SSE 8.1 mph - N/A   Clear
8:15 PM 72.9 °F - 57.0 °F 57% 29.95 in 10.0 mi SSE 9.2 mph - N/A   Clear
8:35 PM 73.2 °F - 56.5 °F 56% 29.95 in 10.0 mi SSE 10.4 mph - N/A   Clear
8:55 PM 72.9 °F - 56.1 °F 56% 29.96 in 10.0 mi SSE 10.4 mph - N/A   Clear
9:15 PM 72.1 °F - 56.3 °F 57% 29.96 in 10.0 mi SSE 10.4 mph - N/A   Clear
9:35 PM 71.6 °F - 56.7 °F 59% 29.96 in 10.0 mi SSE 9.2 mph - N/A   Clear
9:55 PM 70.7 °F - 56.8 °F 61% 29.97 in 10.0 mi South 9.2 mph - N/A   Clear
10:15 PM 70.5 °F - 56.7 °F 61% 29.99 in 10.0 mi South 9.2 mph - N/A   Clear
10:35 PM 70.0 °F - 56.5 °F 62% 29.99 in 10.0 mi South 6.9 mph - N/A   Clear
10:55 PM 69.1 °F - 56.5 °F 64% 29.99 in 10.0 mi South 8.1 mph - N/A   Clear
11:35 PM 66.6 °F - 56.8 °F 71% 29.99 in 10.0 mi South 8.1 mph - N/A   Clear
11:55 PM 65.7 °F - 57.0 °F 74% 30.00 in 10.0 mi South 5.8 mph - N/A   Clear